createdAt,value
2022-09-06T00:00:04.468Z,967.22
2022-09-06T00:00:54.433Z,967.19
2022-09-06T00:01:44.453Z,967.21
2022-09-06T00:02:34.487Z,967.19
2022-09-06T00:03:24.462Z,967.17
2022-09-06T00:04:15.519Z,967.16
2022-09-06T00:05:04.423Z,967.20
2022-09-06T00:05:54.393Z,967.21
2022-09-06T00:06:44.383Z,967.17
2022-09-06T00:07:34.367Z,967.15
2022-09-06T00:08:24.408Z,967.14
2022-09-06T00:09:14.378Z,967.15
2022-09-06T00:10:04.353Z,967.11
2022-09-06T00:10:57.820Z,967.12
2022-09-06T00:11:45.331Z,967.11
2022-09-06T00:12:34.332Z,967.15
2022-09-06T00:13:24.326Z,967.13
2022-09-06T00:14:14.303Z,967.13
2022-09-06T00:15:04.293Z,967.13
2022-09-06T00:15:54.368Z,967.13
2022-09-06T00:16:44.272Z,967.13
2022-09-06T00:17:34.273Z,967.17
2022-09-06T00:18:24.300Z,967.16
2022-09-06T00:19:14.269Z,967.15
2022-09-06T00:20:04.234Z,967.16
2022-09-06T00:20:54.233Z,967.19
2022-09-06T00:21:44.224Z,967.17
2022-09-06T00:22:34.215Z,967.17
2022-09-06T00:23:24.193Z,967.24
2022-09-06T00:24:14.216Z,967.17
2022-09-06T00:25:04.193Z,967.25
2022-09-06T00:25:54.205Z,967.18
2022-09-06T00:26:44.154Z,967.23
2022-09-06T00:27:34.159Z,967.21
2022-09-06T00:28:24.134Z,967.22
2022-09-06T00:29:14.161Z,967.20
2022-09-06T00:30:04.142Z,967.20
2022-09-06T00:30:54.173Z,967.21
2022-09-06T00:31:44.103Z,967.16
2022-09-06T00:32:34.104Z,967.20
2022-09-06T00:33:24.095Z,967.15
2022-09-06T00:34:14.093Z,967.14
2022-09-06T00:35:04.065Z,967.13
2022-09-06T00:35:54.073Z,967.20
2022-09-06T00:36:44.057Z,967.16
2022-09-06T00:37:34.057Z,967.18
2022-09-06T00:38:24.022Z,967.21
2022-09-06T00:39:14.044Z,967.19
2022-09-06T00:40:04.094Z,967.23
2022-09-06T00:40:54.020Z,967.19
2022-09-06T00:41:44.002Z,967.19
2022-09-06T00:42:33.991Z,967.20
2022-09-06T00:43:23.986Z,967.22
2022-09-06T00:44:13.983Z,967.22
2022-09-06T00:45:03.962Z,967.22
2022-09-06T00:45:54.011Z,967.17
2022-09-06T00:46:43.990Z,967.15
2022-09-06T00:47:33.944Z,967.14
2022-09-06T00:48:23.999Z,967.17
2022-09-06T00:49:13.933Z,967.17
2022-09-06T00:50:03.892Z,967.15
2022-09-06T00:50:53.908Z,967.10
2022-09-06T00:51:43.882Z,967.15
2022-09-06T00:52:33.871Z,967.13
2022-09-06T00:53:23.862Z,967.11
2022-09-06T00:54:13.884Z,967.13
2022-09-06T00:55:03.855Z,967.17
2022-09-06T00:55:53.842Z,967.16
2022-09-06T00:56:43.822Z,967.15
2022-09-06T00:57:33.822Z,967.15
2022-09-06T00:58:23.820Z,967.17
2022-09-06T00:59:13.823Z,967.16
2022-09-06T01:00:03.790Z,967.17
2022-09-06T01:00:53.784Z,967.14
2022-09-06T01:01:43.858Z,967.18
2022-09-06T01:02:33.862Z,967.15
2022-09-06T01:03:23.762Z,967.16
2022-09-06T01:04:13.774Z,967.16
2022-09-06T01:05:03.746Z,967.18
2022-09-06T01:05:54.628Z,967.21
2022-09-06T01:06:43.722Z,967.22
2022-09-06T01:07:33.718Z,967.20
2022-09-06T01:08:23.702Z,967.18
2022-09-06T01:09:13.702Z,967.26
2022-09-06T01:10:03.672Z,967.25
2022-09-06T01:10:53.682Z,967.25
2022-09-06T01:11:43.662Z,967.23
2022-09-06T01:12:33.654Z,967.24
2022-09-06T01:13:23.653Z,967.21
2022-09-06T01:14:13.663Z,967.24
2022-09-06T01:15:03.633Z,967.19
2022-09-06T01:15:53.671Z,967.23
2022-09-06T01:16:43.618Z,967.26
2022-09-06T01:17:33.622Z,967.26
2022-09-06T01:18:23.627Z,967.26
2022-09-06T01:19:13.610Z,967.28
2022-09-06T01:20:03.571Z,967.31
2022-09-06T01:20:53.560Z,967.32
2022-09-06T01:21:43.552Z,967.31
2022-09-06T01:22:33.552Z,967.31
2022-09-06T01:23:23.538Z,967.32
2022-09-06T01:24:13.553Z,967.33
2022-09-06T01:25:03.529Z,967.34
2022-09-06T01:25:53.520Z,967.39
2022-09-06T01:26:43.491Z,967.41
2022-09-06T01:27:33.501Z,967.37
2022-09-06T01:28:23.504Z,967.37
2022-09-06T01:29:13.480Z,967.39
2022-09-06T01:30:03.450Z,967.39
2022-09-06T01:30:53.596Z,967.41
2022-09-06T01:31:43.431Z,967.41
2022-09-06T01:32:33.435Z,967.44
2022-09-06T01:33:23.430Z,967.46
2022-09-06T01:34:13.431Z,967.47
2022-09-06T01:35:03.410Z,967.44
2022-09-06T01:35:53.405Z,967.49
2022-09-06T01:37:06.263Z,967.45
2022-09-06T01:37:34.377Z,967.47
2022-09-06T01:38:23.403Z,967.43
2022-09-06T01:39:13.389Z,967.46
2022-09-06T01:40:03.426Z,967.48
2022-09-06T01:40:53.339Z,967.45
2022-09-06T01:41:43.332Z,967.46
2022-09-06T01:42:33.332Z,967.39
2022-09-06T01:43:23.310Z,967.41
2022-09-06T01:44:13.322Z,967.43
2022-09-06T01:45:03.288Z,967.42
2022-09-06T01:45:53.341Z,967.45
2022-09-06T01:46:43.282Z,967.45
2022-09-06T01:47:33.284Z,967.47
2022-09-06T01:48:23.334Z,967.51
2022-09-06T01:49:13.288Z,967.44
2022-09-06T01:50:03.230Z,967.46
2022-09-06T01:50:53.230Z,967.43
2022-09-06T01:51:43.227Z,967.46
2022-09-06T01:52:33.208Z,967.42
2022-09-06T01:53:23.197Z,967.40
2022-09-06T01:54:13.211Z,967.41
2022-09-06T01:55:03.193Z,967.41
2022-09-06T01:55:53.179Z,967.43
2022-09-06T01:56:43.170Z,967.46
2022-09-06T01:57:33.179Z,967.45
2022-09-06T01:58:23.171Z,967.43
2022-09-06T01:59:13.149Z,967.46
2022-09-06T02:00:03.137Z,967.48
2022-09-06T02:00:53.127Z,967.50
2022-09-06T02:01:43.251Z,967.46
2022-09-06T02:02:33.150Z,967.50
2022-09-06T02:03:23.107Z,967.46
2022-09-06T02:04:13.090Z,967.47
2022-09-06T02:05:03.082Z,967.44
2022-09-06T02:05:53.079Z,967.47
2022-09-06T02:06:43.087Z,967.42
2022-09-06T02:07:33.047Z,967.42
2022-09-06T02:08:23.052Z,967.42
2022-09-06T02:09:13.038Z,967.43
2022-09-06T02:10:03.026Z,967.42
2022-09-06T02:10:53.039Z,967.43
2022-09-06T02:11:42.999Z,967.45
2022-09-06T02:12:33.001Z,967.47
2022-09-06T02:13:22.975Z,967.44
2022-09-06T02:14:12.998Z,967.43
2022-09-06T02:15:02.976Z,967.44
2022-09-06T02:15:52.959Z,967.47
2022-09-06T02:16:43.041Z,967.46
2022-09-06T02:17:32.956Z,967.48
2022-09-06T02:18:23.043Z,967.48
2022-09-06T02:19:12.927Z,967.49
2022-09-06T02:20:02.929Z,967.52
2022-09-06T02:20:52.941Z,967.54
2022-09-06T02:21:42.888Z,967.59
2022-09-06T02:22:32.887Z,967.60
2022-09-06T02:23:22.878Z,967.61
2022-09-06T02:24:12.868Z,967.61
2022-09-06T02:25:02.879Z,967.60
2022-09-06T02:25:52.837Z,967.55
2022-09-06T02:26:42.839Z,967.54
2022-09-06T02:27:32.840Z,967.51
2022-09-06T02:28:22.876Z,967.46
2022-09-06T02:29:12.846Z,967.53
2022-09-06T02:30:02.814Z,967.50
2022-09-06T02:30:52.836Z,967.56
2022-09-06T02:31:42.774Z,967.54
2022-09-06T02:32:32.787Z,967.53
2022-09-06T02:33:22.756Z,967.48
2022-09-06T02:34:12.771Z,967.53
2022-09-06T02:35:02.737Z,967.55
2022-09-06T02:35:52.748Z,967.49
2022-09-06T02:36:42.732Z,967.53
2022-09-06T02:37:32.709Z,967.50
2022-09-06T02:38:22.758Z,967.50
2022-09-06T02:39:12.717Z,967.51
2022-09-06T02:40:02.762Z,967.51
2022-09-06T02:40:52.690Z,967.53
2022-09-06T02:41:42.682Z,967.50
2022-09-06T02:42:32.667Z,967.48
2022-09-06T02:43:22.647Z,967.45
2022-09-06T02:44:12.695Z,967.44
2022-09-06T02:45:02.646Z,967.43
2022-09-06T02:45:52.676Z,967.40
2022-09-06T02:46:42.612Z,967.42
2022-09-06T02:47:32.600Z,967.45
2022-09-06T02:48:22.634Z,967.45
2022-09-06T02:49:12.619Z,967.44
2022-09-06T02:50:02.579Z,967.49
2022-09-06T02:50:52.563Z,967.49
2022-09-06T02:51:42.579Z,967.49
2022-09-06T02:52:32.562Z,967.55
2022-09-06T02:53:22.564Z,967.46
2022-09-06T02:54:12.540Z,967.43
2022-09-06T02:55:02.558Z,967.49
2022-09-06T02:55:52.510Z,967.46
2022-09-06T02:56:42.518Z,967.40
2022-09-06T02:57:32.512Z,967.38
2022-09-06T02:58:22.529Z,967.40
2022-09-06T02:59:12.490Z,967.41
2022-09-06T03:00:02.481Z,967.38
2022-09-06T03:00:52.505Z,967.36
2022-09-06T03:01:42.502Z,967.37
2022-09-06T03:02:32.517Z,967.34
2022-09-06T03:03:22.428Z,967.40
2022-09-06T03:04:12.431Z,967.42
2022-09-06T03:05:02.431Z,967.44
2022-09-06T03:05:52.410Z,967.46
2022-09-06T03:06:42.393Z,967.47
2022-09-06T03:07:32.378Z,967.45
2022-09-06T03:08:22.382Z,967.43
2022-09-06T03:09:12.379Z,967.42
2022-09-06T03:10:02.360Z,967.47
2022-09-06T03:10:52.367Z,967.42
2022-09-06T03:11:42.344Z,967.43
2022-09-06T03:12:32.330Z,967.43
2022-09-06T03:13:22.321Z,967.47
2022-09-06T03:14:12.350Z,967.51
2022-09-06T03:15:02.332Z,967.50
2022-09-06T03:15:52.290Z,967.46
2022-09-06T03:16:42.390Z,967.48
2022-09-06T03:17:32.277Z,967.46
2022-09-06T03:18:22.322Z,967.47
2022-09-06T03:19:12.280Z,967.45
2022-09-06T03:20:02.256Z,967.44
2022-09-06T03:20:52.266Z,967.43
2022-09-06T03:21:42.219Z,967.41
2022-09-06T03:22:32.227Z,967.39
2022-09-06T03:23:22.200Z,967.40
2022-09-06T03:24:12.217Z,967.38
2022-09-06T03:25:02.207Z,967.37
2022-09-06T03:25:52.172Z,967.42
2022-09-06T03:26:42.162Z,967.42
2022-09-06T03:27:32.188Z,967.41
2022-09-06T03:28:22.152Z,967.45
2022-09-06T03:29:12.156Z,967.47
2022-09-06T03:30:02.127Z,967.46
2022-09-06T03:30:52.181Z,967.49
2022-09-06T03:31:42.132Z,967.48
2022-09-06T03:32:33.184Z,967.46
2022-09-06T03:33:22.089Z,967.44
2022-09-06T03:34:12.098Z,967.50
2022-09-06T03:35:02.080Z,967.47
2022-09-06T03:35:52.107Z,967.48
2022-09-06T03:36:42.071Z,967.46
2022-09-06T03:37:32.059Z,967.48
2022-09-06T03:38:22.138Z,967.46
2022-09-06T03:39:12.070Z,967.49
2022-09-06T03:40:02.071Z,967.49
2022-09-06T03:40:52.026Z,967.49
2022-09-06T03:41:42.008Z,967.49
2022-09-06T03:42:31.988Z,967.53
2022-09-06T03:43:21.990Z,967.52
2022-09-06T03:44:12.011Z,967.47
2022-09-06T03:45:01.974Z,967.51
2022-09-06T03:45:51.996Z,967.50
2022-09-06T03:46:41.945Z,967.49
2022-09-06T03:47:31.948Z,967.48
2022-09-06T03:48:21.941Z,967.42
2022-09-06T03:49:11.947Z,967.42
2022-09-06T03:50:01.946Z,967.41
2022-09-06T03:50:51.910Z,967.37
2022-09-06T03:51:41.888Z,967.41
2022-09-06T03:52:31.888Z,967.39
2022-09-06T03:53:21.887Z,967.38
2022-09-06T03:54:11.879Z,967.36
2022-09-06T03:55:01.861Z,967.38
2022-09-06T03:55:51.858Z,967.38
2022-09-06T03:56:41.840Z,967.33
2022-09-06T03:57:31.825Z,967.33
2022-09-06T03:58:21.881Z,967.37
2022-09-06T03:59:11.832Z,967.35
2022-09-06T04:00:01.801Z,967.34
2022-09-06T04:00:51.835Z,967.36
2022-09-06T04:01:41.889Z,967.36
2022-09-06T04:02:31.849Z,967.36
2022-09-06T04:03:21.785Z,967.37
2022-09-06T04:04:11.767Z,967.41
2022-09-06T04:05:01.747Z,967.40
2022-09-06T04:05:51.747Z,967.43
2022-09-06T04:06:41.734Z,967.43
2022-09-06T04:07:31.736Z,967.40
2022-09-06T04:08:21.731Z,967.40
2022-09-06T04:09:11.730Z,967.42
2022-09-06T04:10:01.707Z,967.43
2022-09-06T04:10:51.679Z,967.46
2022-09-06T04:11:44.964Z,967.46
2022-09-06T04:12:31.667Z,967.44
2022-09-06T04:13:21.666Z,967.46
2022-09-06T04:14:11.671Z,967.44
2022-09-06T04:15:01.654Z,967.42
2022-09-06T04:15:51.628Z,967.45
2022-09-06T04:16:41.686Z,967.40
2022-09-06T04:17:31.626Z,967.44
2022-09-06T04:18:21.674Z,967.46
2022-09-06T04:19:11.596Z,967.41
2022-09-06T04:20:01.578Z,967.45
2022-09-06T04:20:51.577Z,967.43
2022-09-06T04:21:41.559Z,967.40
2022-09-06T04:22:31.561Z,967.46
2022-09-06T04:23:21.569Z,967.41
2022-09-06T04:24:11.583Z,967.38
2022-09-06T04:25:01.540Z,967.43
2022-09-06T04:25:51.532Z,967.45
2022-09-06T04:26:41.525Z,967.40
2022-09-06T04:27:31.517Z,967.40
2022-09-06T04:28:21.543Z,967.39
2022-09-06T04:29:11.506Z,967.38
2022-09-06T04:30:01.509Z,967.38
2022-09-06T04:30:51.455Z,967.37
2022-09-06T04:31:41.503Z,967.35
2022-09-06T04:32:31.469Z,967.39
2022-09-06T04:33:21.445Z,967.39
2022-09-06T04:34:11.435Z,967.33
2022-09-06T04:35:01.426Z,967.35
2022-09-06T04:35:51.414Z,967.36
2022-09-06T04:36:44.465Z,967.39
2022-09-06T04:37:32.385Z,967.35
2022-09-06T04:38:21.428Z,967.36
2022-09-06T04:39:11.386Z,967.43
2022-09-06T04:40:01.435Z,967.43
2022-09-06T04:40:51.365Z,967.44
2022-09-06T04:41:41.362Z,967.42
2022-09-06T04:42:31.334Z,967.38
2022-09-06T04:43:21.325Z,967.37
2022-09-06T04:44:11.349Z,967.39
2022-09-06T04:45:01.305Z,967.31
2022-09-06T04:45:51.362Z,967.35
2022-09-06T04:46:41.304Z,967.33
2022-09-06T04:47:31.283Z,967.33
2022-09-06T04:48:21.369Z,967.33
2022-09-06T04:49:11.275Z,967.34
2022-09-06T04:50:01.253Z,967.34
2022-09-06T04:50:51.235Z,967.36
2022-09-06T04:51:41.234Z,967.44
2022-09-06T04:52:31.234Z,967.36
2022-09-06T04:53:21.231Z,967.35
2022-09-06T04:54:11.241Z,967.38
2022-09-06T04:55:01.204Z,967.38
2022-09-06T04:55:51.212Z,967.40
2022-09-06T04:56:41.174Z,967.41
2022-09-06T04:57:31.190Z,967.44
2022-09-06T04:58:21.214Z,967.44
2022-09-06T04:59:11.187Z,967.43
2022-09-06T05:00:01.154Z,967.47
2022-09-06T05:00:51.180Z,967.43
2022-09-06T05:01:41.134Z,967.44
2022-09-06T05:02:31.166Z,967.49
2022-09-06T05:03:21.137Z,967.51
2022-09-06T05:04:11.133Z,967.51
2022-09-06T05:05:01.134Z,967.46
2022-09-06T05:05:51.073Z,967.51
2022-09-06T05:06:41.085Z,967.54
2022-09-06T05:07:31.098Z,967.57
2022-09-06T05:08:21.053Z,967.58
2022-09-06T05:09:11.074Z,967.56
2022-09-06T05:10:01.053Z,967.63
2022-09-06T05:10:51.023Z,967.66
2022-09-06T05:11:41.083Z,967.68
2022-09-06T05:12:31.030Z,967.69
2022-09-06T05:13:20.993Z,967.70
2022-09-06T05:14:10.996Z,967.70
2022-09-06T05:15:00.986Z,967.70
2022-09-06T05:15:50.973Z,967.70
2022-09-06T05:16:41.051Z,967.73
2022-09-06T05:17:30.972Z,967.71
2022-09-06T05:18:20.955Z,967.70
2022-09-06T05:19:10.958Z,967.74
2022-09-06T05:20:00.943Z,967.74
2022-09-06T05:20:50.911Z,967.78
2022-09-06T05:21:40.915Z,967.80
2022-09-06T05:22:30.905Z,967.74
2022-09-06T05:23:20.893Z,967.77
2022-09-06T05:24:10.907Z,967.77
2022-09-06T05:25:00.883Z,967.77
2022-09-06T05:25:50.854Z,967.76
2022-09-06T05:26:40.844Z,967.79
2022-09-06T05:27:30.843Z,967.79
2022-09-06T05:28:20.844Z,967.80
2022-09-06T05:29:10.842Z,967.81
2022-09-06T05:30:00.814Z,967.78
2022-09-06T05:30:50.828Z,967.78
2022-09-06T05:31:40.893Z,967.76
2022-09-06T05:32:30.771Z,967.71
2022-09-06T05:33:20.784Z,967.75
2022-09-06T05:34:10.782Z,967.75
2022-09-06T05:35:00.752Z,967.75
2022-09-06T05:35:50.741Z,967.78
2022-09-06T05:36:40.743Z,967.80
2022-09-06T05:37:30.731Z,967.83
2022-09-06T05:38:20.733Z,967.83
2022-09-06T05:39:10.720Z,967.81
2022-09-06T05:40:00.749Z,967.80
2022-09-06T05:40:50.702Z,967.79
2022-09-06T05:41:40.730Z,967.82
2022-09-06T05:42:30.682Z,967.81
2022-09-06T05:43:20.691Z,967.83
2022-09-06T05:44:10.664Z,967.83
2022-09-06T05:45:00.654Z,967.85
2022-09-06T05:45:50.682Z,967.87
2022-09-06T05:46:40.621Z,967.88
2022-09-06T05:47:30.622Z,967.86
2022-09-06T05:48:20.611Z,967.89
2022-09-06T05:49:10.610Z,967.88
2022-09-06T05:50:00.591Z,967.89
2022-09-06T05:50:50.591Z,967.94
2022-09-06T05:51:40.575Z,967.92
2022-09-06T05:52:30.560Z,967.94
2022-09-06T05:53:20.562Z,967.91
2022-09-06T05:54:10.549Z,967.90
2022-09-06T05:55:00.530Z,967.88
2022-09-06T05:55:50.527Z,967.88
2022-09-06T05:56:40.535Z,967.95
2022-09-06T05:57:30.523Z,967.95
2022-09-06T05:58:20.501Z,968.00
2022-09-06T05:59:10.509Z,968.00
2022-09-06T06:00:00.490Z,967.95
2022-09-06T06:00:50.517Z,967.96
2022-09-06T06:01:40.520Z,967.98
2022-09-06T06:02:30.579Z,967.96
2022-09-06T06:03:20.440Z,967.94
2022-09-06T06:04:10.450Z,967.96
2022-09-06T06:05:00.441Z,967.98
2022-09-06T06:05:50.423Z,967.93
2022-09-06T06:06:40.401Z,967.95
2022-09-06T06:07:30.398Z,967.91
2022-09-06T06:08:20.398Z,967.94
2022-09-06T06:09:10.382Z,967.96
2022-09-06T06:10:00.380Z,967.98
2022-09-06T06:10:50.359Z,968.01
2022-09-06T06:11:40.360Z,967.99
2022-09-06T06:12:30.353Z,968.01
2022-09-06T06:13:20.335Z,968.00
2022-09-06T06:14:10.353Z,968.01
2022-09-06T06:15:00.312Z,968.02
2022-09-06T06:15:50.320Z,968.01
2022-09-06T06:16:40.356Z,968.02
2022-09-06T06:17:30.280Z,967.95
2022-09-06T06:18:20.299Z,967.97
2022-09-06T06:19:10.286Z,967.99
2022-09-06T06:20:00.302Z,967.96
2022-09-06T06:20:50.251Z,967.97
2022-09-06T06:21:40.242Z,968.00
2022-09-06T06:22:30.219Z,967.98
2022-09-06T06:23:20.234Z,967.98
2022-09-06T06:24:10.240Z,967.95
2022-09-06T06:25:00.222Z,967.97
2022-09-06T06:25:50.188Z,967.96
2022-09-06T06:26:40.180Z,967.95
2022-09-06T06:27:30.168Z,967.97
2022-09-06T06:28:20.195Z,967.95
2022-09-06T06:29:10.178Z,967.98
2022-09-06T06:30:00.174Z,967.98
2022-09-06T06:30:50.150Z,967.98
2022-09-06T06:31:40.210Z,967.94
2022-09-06T06:32:30.137Z,967.97
2022-09-06T06:33:20.172Z,967.95
2022-09-06T06:34:10.105Z,967.95
2022-09-06T06:35:00.115Z,967.94
2022-09-06T06:35:50.090Z,967.94
2022-09-06T06:36:40.078Z,967.89
2022-09-06T06:37:30.082Z,967.90
2022-09-06T06:38:20.079Z,967.92
2022-09-06T06:39:10.049Z,967.92
2022-09-06T06:40:00.146Z,967.92
2022-09-06T06:40:50.024Z,967.91
2022-09-06T06:41:40.007Z,967.90
2022-09-06T06:42:30.020Z,967.90
2022-09-06T06:43:20.017Z,967.87
2022-09-06T06:44:10.012Z,967.87
2022-09-06T06:44:59.982Z,967.90
2022-09-06T06:45:50.077Z,967.88
2022-09-06T06:46:39.962Z,967.90
2022-09-06T06:47:29.950Z,967.90
2022-09-06T06:48:19.995Z,967.90
2022-09-06T06:49:09.946Z,967.87
2022-09-06T06:49:59.927Z,967.87
2022-09-06T06:50:49.908Z,967.87
2022-09-06T06:51:39.917Z,967.83
2022-09-06T06:52:29.886Z,967.86
2022-09-06T06:53:19.888Z,967.82
2022-09-06T06:54:09.937Z,967.83
2022-09-06T06:54:59.866Z,967.86
2022-09-06T06:55:49.848Z,967.88
2022-09-06T06:56:39.846Z,967.84
2022-09-06T06:57:29.827Z,967.84
2022-09-06T06:58:19.838Z,967.81
2022-09-06T06:59:09.829Z,967.74
2022-09-06T06:59:59.807Z,967.77
2022-09-06T07:00:49.919Z,967.81
2022-09-06T07:01:40.095Z,967.82
2022-09-06T07:02:29.920Z,967.81
2022-09-06T07:03:19.787Z,967.75
2022-09-06T07:04:09.785Z,967.73
2022-09-06T07:04:59.780Z,967.76
2022-09-06T07:07:31.003Z,967.69
2022-09-06T07:08:19.735Z,967.69
2022-09-06T07:09:09.766Z,967.72
2022-09-06T07:10:50.697Z,967.72
2022-09-06T07:11:39.705Z,967.71
2022-09-06T07:12:29.655Z,967.72
2022-09-06T07:13:19.658Z,967.74
2022-09-06T07:14:09.667Z,967.73
2022-09-06T07:14:59.657Z,967.71
2022-09-06T07:15:49.654Z,967.71
2022-09-06T07:16:39.637Z,967.68
2022-09-06T07:17:29.606Z,967.67
2022-09-06T07:18:19.601Z,967.66
2022-09-06T07:20:16.435Z,967.64
2022-09-06T07:21:40.587Z,967.70
2022-09-06T07:22:29.559Z,967.66
2022-09-06T07:24:10.772Z,967.70
2022-09-06T07:24:59.550Z,967.64
2022-09-06T07:25:49.516Z,967.63
2022-09-06T07:26:40.189Z,967.60
2022-09-06T07:28:20.517Z,967.64
2022-09-06T07:29:09.487Z,967.64
2022-09-06T07:29:59.466Z,967.54
2022-09-06T07:30:49.473Z,967.59
2022-09-06T07:32:30.463Z,967.58
2022-09-06T07:33:19.436Z,967.62
2022-09-06T07:34:09.458Z,967.61
2022-09-06T07:34:59.414Z,967.58
2022-09-06T07:35:49.417Z,967.59
2022-09-06T07:36:39.397Z,967.62
2022-09-06T07:37:29.405Z,967.63
2022-09-06T07:38:19.389Z,967.62
2022-09-06T07:39:09.398Z,967.57
2022-09-06T07:39:59.470Z,967.55
2022-09-06T07:40:49.355Z,967.55
2022-09-06T07:41:39.346Z,967.57
2022-09-06T07:42:32.764Z,967.55
2022-09-06T07:43:20.334Z,967.58
2022-09-06T07:44:09.347Z,967.58
2022-09-06T07:44:59.326Z,967.61
2022-09-06T07:45:49.305Z,967.55
2022-09-06T07:46:39.343Z,967.57
2022-09-06T07:48:20.310Z,967.61
2022-09-06T07:49:09.340Z,967.61
2022-09-06T07:50:51.137Z,967.65
2022-09-06T07:51:39.227Z,967.62
2022-09-06T07:53:29.798Z,967.63
2022-09-06T07:55:00.208Z,967.56
2022-09-06T07:55:49.187Z,967.54
2022-09-06T07:56:39.186Z,967.52
2022-09-06T07:57:29.170Z,967.50
2022-09-06T07:58:19.157Z,967.47
2022-09-06T07:59:09.166Z,967.52
2022-09-06T07:59:59.163Z,967.50
2022-09-06T08:00:49.182Z,967.49
2022-09-06T08:01:39.242Z,967.49
2022-09-06T08:02:29.182Z,967.54
2022-09-06T08:03:19.140Z,967.52
2022-09-06T08:04:09.158Z,967.52
2022-09-06T08:04:59.103Z,967.50
2022-09-06T08:09:10.077Z,967.49
2022-09-06T08:09:59.042Z,967.50
2022-09-06T08:10:49.034Z,967.47
2022-09-06T08:11:39.016Z,967.45
2022-09-06T08:12:29.018Z,967.45
2022-09-06T08:13:18.996Z,967.44
2022-09-06T08:14:08.996Z,967.49
2022-09-06T08:14:58.986Z,967.45
2022-09-06T08:15:49.083Z,967.45
2022-09-06T08:16:39.021Z,967.46
2022-09-06T08:17:28.967Z,967.47
2022-09-06T08:18:18.949Z,967.45
2022-09-06T08:19:08.949Z,967.45
2022-09-06T08:19:58.915Z,967.44
2022-09-06T08:20:48.926Z,967.41
2022-09-06T08:21:38.895Z,967.40
2022-09-06T08:22:28.926Z,967.35
2022-09-06T08:23:18.898Z,967.40
2022-09-06T08:24:08.888Z,967.40
2022-09-06T08:24:58.875Z,967.41
2022-09-06T08:25:48.866Z,967.37
2022-09-06T08:26:38.857Z,967.35
2022-09-06T08:27:28.837Z,967.33
2022-09-06T08:28:18.847Z,967.35
2022-09-06T08:29:09.009Z,967.38
2022-09-06T08:29:58.829Z,967.35
2022-09-06T08:30:48.836Z,967.38
2022-09-06T08:31:38.948Z,967.39
2022-09-06T08:32:28.805Z,967.45
2022-09-06T08:33:18.814Z,967.44
2022-09-06T08:34:08.786Z,967.46
2022-09-06T08:34:58.775Z,967.50
2022-09-06T08:35:48.750Z,967.49
2022-09-06T08:36:38.763Z,967.53
2022-09-06T08:37:28.750Z,967.55
2022-09-06T08:38:18.726Z,967.60
2022-09-06T08:39:08.739Z,967.63
2022-09-06T08:39:58.783Z,967.63
2022-09-06T08:40:48.703Z,967.62
2022-09-06T08:41:38.703Z,967.61
2022-09-06T08:42:28.696Z,967.66
2022-09-06T08:43:18.679Z,967.67
2022-09-06T08:44:59.689Z,967.71
2022-09-06T08:45:50.534Z,967.73
2022-09-06T08:46:38.647Z,967.72
2022-09-06T08:47:28.619Z,967.70
2022-09-06T08:48:18.645Z,967.71
2022-09-06T08:49:08.617Z,967.71
2022-09-06T08:49:58.629Z,967.73
2022-09-06T08:50:48.601Z,967.74
2022-09-06T08:51:38.730Z,967.71
2022-09-06T08:52:28.596Z,967.74
2022-09-06T08:53:18.637Z,967.72
2022-09-06T08:54:08.556Z,967.75
2022-09-06T08:54:58.548Z,967.81
2022-09-06T08:55:48.549Z,967.74
2022-09-06T08:56:38.581Z,967.72
2022-09-06T08:57:28.518Z,967.71
2022-09-06T08:58:18.519Z,967.69
2022-09-06T08:59:08.511Z,967.67
2022-09-06T08:59:58.487Z,967.65
2022-09-06T09:00:48.530Z,967.63
2022-09-06T09:01:38.567Z,967.64
2022-09-06T09:02:28.489Z,967.63
2022-09-06T09:03:18.468Z,967.63
2022-09-06T09:04:08.476Z,967.65
2022-09-06T09:04:58.439Z,967.71
2022-09-06T09:05:48.443Z,967.70
2022-09-06T09:06:38.411Z,967.73
2022-09-06T09:07:28.438Z,967.76
2022-09-06T09:08:18.396Z,967.78
2022-09-06T09:09:08.406Z,967.78
2022-09-06T09:09:58.377Z,967.81
2022-09-06T09:10:48.376Z,967.83
2022-09-06T09:11:38.346Z,967.86
2022-09-06T09:12:28.366Z,967.87
2022-09-06T09:13:18.376Z,967.85
2022-09-06T09:14:08.329Z,967.88
2022-09-06T09:14:58.336Z,967.88
2022-09-06T09:15:48.357Z,967.92
2022-09-06T09:16:38.316Z,967.91
2022-09-06T09:17:28.307Z,967.90
2022-09-06T09:18:18.307Z,967.91
2022-09-06T09:19:08.286Z,967.92
2022-09-06T09:19:58.276Z,967.93
2022-09-06T09:20:48.276Z,967.92
2022-09-06T09:21:38.246Z,967.92
2022-09-06T09:22:28.245Z,967.96
2022-09-06T09:23:18.237Z,967.94
2022-09-06T09:24:08.253Z,967.98
2022-09-06T09:24:58.216Z,967.95
2022-09-06T09:25:48.227Z,967.96
2022-09-06T09:26:38.241Z,967.94
2022-09-06T09:27:28.189Z,967.96
2022-09-06T09:28:18.177Z,967.93
2022-09-06T09:29:08.198Z,967.91
2022-09-06T09:30:49.658Z,967.86
2022-09-06T09:31:38.239Z,967.88
2022-09-06T09:32:28.136Z,967.79
2022-09-06T09:33:18.120Z,967.81
2022-09-06T09:34:08.149Z,967.77
2022-09-06T09:34:58.118Z,967.79
2022-09-06T09:35:48.110Z,967.78
2022-09-06T09:36:38.243Z,967.71
2022-09-06T09:38:19.078Z,967.62
2022-09-06T09:39:08.070Z,967.66
2022-09-06T09:39:58.084Z,967.62
2022-09-06T09:40:48.061Z,967.62
2022-09-06T09:41:38.031Z,967.63
2022-09-06T09:42:28.029Z,967.60
2022-09-06T09:43:18.037Z,967.64
2022-09-06T09:44:08.037Z,967.64
2022-09-06T09:44:58.009Z,967.63
2022-09-06T09:45:47.980Z,967.58
2022-09-06T09:46:37.997Z,967.55
2022-09-06T09:47:27.971Z,967.54
2022-09-06T09:48:17.966Z,967.53
2022-09-06T09:49:07.960Z,967.49
2022-09-06T09:49:57.929Z,967.47
2022-09-06T09:50:47.926Z,967.50
2022-09-06T09:51:37.919Z,967.42
2022-09-06T09:52:27.935Z,967.41
2022-09-06T09:53:17.900Z,967.39
2022-09-06T09:54:07.907Z,967.39
2022-09-06T09:54:57.919Z,967.40
2022-09-06T09:55:47.892Z,967.42
2022-09-06T09:56:37.870Z,967.36
2022-09-06T09:57:27.875Z,967.39
2022-09-06T09:58:17.844Z,967.35
2022-09-06T09:59:07.876Z,967.23
2022-09-06T09:59:57.829Z,967.18
2022-09-06T10:00:47.902Z,967.12
2022-09-06T10:01:37.826Z,967.11
2022-09-06T10:02:27.818Z,967.11
2022-09-06T10:03:17.825Z,967.08
2022-09-06T10:04:58.779Z,967.16
2022-09-06T10:05:47.797Z,967.21
2022-09-06T10:07:28.758Z,967.29
2022-09-06T10:08:17.750Z,967.27
2022-09-06T10:09:07.751Z,967.25
2022-09-06T10:09:57.728Z,967.26
2022-09-06T10:10:47.722Z,967.25
2022-09-06T10:11:37.709Z,967.25
2022-09-06T10:12:27.717Z,967.29
2022-09-06T10:13:17.705Z,967.22
2022-09-06T10:14:07.691Z,967.23
2022-09-06T10:14:57.680Z,967.21
2022-09-06T10:15:47.695Z,967.22
2022-09-06T10:16:37.642Z,967.25
2022-09-06T10:17:27.660Z,967.26
2022-09-06T10:18:17.653Z,967.28
2022-09-06T10:19:07.657Z,967.27
2022-09-06T10:19:57.607Z,967.32
2022-09-06T10:20:47.616Z,967.32
2022-09-06T10:21:37.589Z,967.32
2022-09-06T10:22:27.601Z,967.34
2022-09-06T10:23:17.627Z,967.35
2022-09-06T10:24:58.551Z,967.31
2022-09-06T10:25:49.560Z,967.31
2022-09-06T10:26:37.554Z,967.23
2022-09-06T10:27:27.539Z,967.24
2022-09-06T10:28:17.526Z,967.21
2022-09-06T10:29:07.529Z,967.16
2022-09-06T10:29:57.500Z,967.06
2022-09-06T10:30:47.490Z,967.05
2022-09-06T10:31:37.521Z,967.03
2022-09-06T10:32:30.924Z,966.98
2022-09-06T10:33:17.461Z,967.00
2022-09-06T10:34:07.468Z,967.06
2022-09-06T10:34:57.440Z,967.01
2022-09-06T10:35:47.449Z,967.10
2022-09-06T10:36:37.439Z,967.10
2022-09-06T10:37:27.422Z,967.07
2022-09-06T10:38:17.409Z,967.11
2022-09-06T10:39:07.431Z,967.10
2022-09-06T10:39:57.447Z,967.04
2022-09-06T10:40:47.505Z,967.05
2022-09-06T10:41:37.369Z,967.08